sensor_id;sensor_type;location;lat;lon;timestamp;P1;durP1;ratioP1;P2;durP2;ratioP2
8086;SDS011;4086;54.412;9.980;2024-01-30T00:01:25;9.03;;;4.13;;
8086;SDS011;4086;54.412;9.980;2024-01-30T00:03:51;5.83;;;4.10;;
8086;SDS011;4086;54.412;9.980;2024-01-30T00:06:19;5.90;;;4.37;;
8086;SDS011;4086;54.412;9.980;2024-01-30T00:08:47;8.80;;;4.90;;
8086;SDS011;4086;54.412;9.980;2024-01-30T00:11:15;7.33;;;5.20;;
8086;SDS011;4086;54.412;9.980;2024-01-30T00:13:42;9.73;;;5.13;;
8086;SDS011;4086;54.412;9.980;2024-01-30T00:16:08;7.73;;;4.47;;
8086;SDS011;4086;54.412;9.980;2024-01-30T00:18:35;6.83;;;5.10;;
8086;SDS011;4086;54.412;9.980;2024-01-30T00:21:02;7.93;;;4.33;;
8086;SDS011;4086;54.412;9.980;2024-01-30T00:23:30;7.80;;;4.70;;
8086;SDS011;4086;54.412;9.980;2024-01-30T00:25:56;8.00;;;5.07;;
8086;SDS011;4086;54.412;9.980;2024-01-30T00:28:23;8.77;;;4.37;;
8086;SDS011;4086;54.412;9.980;2024-01-30T00:30:49;6.37;;;4.13;;
8086;SDS011;4086;54.412;9.980;2024-01-30T00:33:16;11.23;;;5.20;;
8086;SDS011;4086;54.412;9.980;2024-01-30T00:35:42;11.47;;;4.60;;
8086;SDS011;4086;54.412;9.980;2024-01-30T00:38:08;8.57;;;5.07;;
8086;SDS011;4086;54.412;9.980;2024-01-30T00:40:36;6.83;;;4.33;;
8086;SDS011;4086;54.412;9.980;2024-01-30T00:43:03;5.07;;;4.30;;
8086;SDS011;4086;54.412;9.980;2024-01-30T00:45:29;8.00;;;4.47;;
8086;SDS011;4086;54.412;9.980;2024-01-30T00:47:56;6.83;;;4.13;;
8086;SDS011;4086;54.412;9.980;2024-01-30T00:50:22;7.10;;;5.17;;
8086;SDS011;4086;54.412;9.980;2024-01-30T00:52:49;5.70;;;4.37;;
8086;SDS011;4086;54.412;9.980;2024-01-30T00:55:15;8.47;;;5.37;;
8086;SDS011;4086;54.412;9.980;2024-01-30T00:57:43;12.77;;;5.27;;
8086;SDS011;4086;54.412;9.980;2024-01-30T01:00:09;10.20;;;5.00;;
8086;SDS011;4086;54.412;9.980;2024-01-30T01:02:37;7.23;;;5.03;;
8086;SDS011;4086;54.412;9.980;2024-01-30T01:05:05;8.97;;;4.60;;
8086;SDS011;4086;54.412;9.980;2024-01-30T01:07:31;7.90;;;4.80;;
8086;SDS011;4086;54.412;9.980;2024-01-30T01:09:58;9.63;;;4.27;;
8086;SDS011;4086;54.412;9.980;2024-01-30T01:12:24;5.67;;;4.40;;
8086;SDS011;4086;54.412;9.980;2024-01-30T01:14:52;8.07;;;3.60;;
8086;SDS011;4086;54.412;9.980;2024-01-30T01:17:18;10.27;;;4.90;;
8086;SDS011;4086;54.412;9.980;2024-01-30T01:19:45;10.57;;;5.53;;
8086;SDS011;4086;54.412;9.980;2024-01-30T01:22:11;9.63;;;5.33;;
8086;SDS011;4086;54.412;9.980;2024-01-30T01:24:37;10.07;;;4.80;;
8086;SDS011;4086;54.412;9.980;2024-01-30T01:27:04;11.27;;;4.63;;
8086;SDS011;4086;54.412;9.980;2024-01-30T01:29:31;7.90;;;5.13;;
8086;SDS011;4086;54.412;9.980;2024-01-30T01:31:58;8.10;;;4.97;;
8086;SDS011;4086;54.412;9.980;2024-01-30T01:34:25;8.13;;;4.37;;
8086;SDS011;4086;54.412;9.980;2024-01-30T01:36:51;7.07;;;4.40;;
8086;SDS011;4086;54.412;9.980;2024-01-30T01:39:20;7.73;;;5.37;;
8086;SDS011;4086;54.412;9.980;2024-01-30T01:41:46;8.40;;;4.73;;
8086;SDS011;4086;54.412;9.980;2024-01-30T01:44:13;4.23;;;3.73;;
8086;SDS011;4086;54.412;9.980;2024-01-30T01:46:39;7.53;;;4.33;;
8086;SDS011;4086;54.412;9.980;2024-01-30T01:49:07;7.40;;;4.33;;
8086;SDS011;4086;54.412;9.980;2024-01-30T01:51:35;7.33;;;4.20;;
8086;SDS011;4086;54.412;9.980;2024-01-30T01:54:03;7.83;;;4.57;;
8086;SDS011;4086;54.412;9.980;2024-01-30T01:56:30;7.60;;;4.40;;
8086;SDS011;4086;54.412;9.980;2024-01-30T01:58:58;10.00;;;4.47;;
8086;SDS011;4086;54.412;9.980;2024-01-30T02:01:26;7.53;;;5.73;;
8086;SDS011;4086;54.412;9.980;2024-01-30T02:03:53;6.70;;;4.83;;
8086;SDS011;4086;54.412;9.980;2024-01-30T02:06:21;6.73;;;4.80;;
8086;SDS011;4086;54.412;9.980;2024-01-30T02:08:47;7.23;;;4.90;;
8086;SDS011;4086;54.412;9.980;2024-01-30T02:11:14;6.87;;;4.60;;
8086;SDS011;4086;54.412;9.980;2024-01-30T02:13:41;9.90;;;5.57;;
8086;SDS011;4086;54.412;9.980;2024-01-30T02:16:08;6.27;;;4.63;;
8086;SDS011;4086;54.412;9.980;2024-01-30T02:18:35;9.47;;;5.00;;
8086;SDS011;4086;54.412;9.980;2024-01-30T02:21:08;11.10;;;5.23;;
8086;SDS011;4086;54.412;9.980;2024-01-30T02:23:34;6.80;;;4.30;;
8086;SDS011;4086;54.412;9.980;2024-01-30T02:26:01;5.63;;;4.00;;
8086;SDS011;4086;54.412;9.980;2024-01-30T02:28:27;6.47;;;4.50;;
8086;SDS011;4086;54.412;9.980;2024-01-30T02:30:53;8.77;;;5.40;;
8086;SDS011;4086;54.412;9.980;2024-01-30T02:33:20;5.83;;;3.60;;
8086;SDS011;4086;54.412;9.980;2024-01-30T02:35:47;7.90;;;4.00;;
8086;SDS011;4086;54.412;9.980;2024-01-30T02:38:15;6.73;;;4.73;;
8086;SDS011;4086;54.412;9.980;2024-01-30T02:40:41;6.10;;;5.03;;
8086;SDS011;4086;54.412;9.980;2024-01-30T02:43:08;5.90;;;3.93;;
8086;SDS011;4086;54.412;9.980;2024-01-30T02:45:34;7.13;;;4.13;;
8086;SDS011;4086;54.412;9.980;2024-01-30T02:48:01;4.50;;;3.83;;
8086;SDS011;4086;54.412;9.980;2024-01-30T02:50:27;6.43;;;4.17;;
8086;SDS011;4086;54.412;9.980;2024-01-30T02:52:54;5.23;;;3.97;;
8086;SDS011;4086;54.412;9.980;2024-01-30T02:55:21;6.40;;;3.80;;
8086;SDS011;4086;54.412;9.980;2024-01-30T02:57:48;7.83;;;4.23;;
8086;SDS011;4086;54.412;9.980;2024-01-30T03:00:14;4.87;;;3.50;;
8086;SDS011;4086;54.412;9.980;2024-01-30T03:02:41;4.43;;;3.40;;
8086;SDS011;4086;54.412;9.980;2024-01-30T03:05:07;5.63;;;4.07;;
8086;SDS011;4086;54.412;9.980;2024-01-30T03:07:34;4.60;;;3.33;;
8086;SDS011;4086;54.412;9.980;2024-01-30T03:10:00;9.13;;;4.30;;
8086;SDS011;4086;54.412;9.980;2024-01-30T03:12:28;9.77;;;4.10;;
8086;SDS011;4086;54.412;9.980;2024-01-30T03:14:54;6.50;;;4.13;;
8086;SDS011;4086;54.412;9.980;2024-01-30T03:17:21;7.10;;;3.50;;
8086;SDS011;4086;54.412;9.980;2024-01-30T03:19:47;7.17;;;4.17;;
8086;SDS011;4086;54.412;9.980;2024-01-30T03:22:13;7.17;;;3.23;;
8086;SDS011;4086;54.412;9.980;2024-01-30T03:24:40;6.77;;;3.47;;
8086;SDS011;4086;54.412;9.980;2024-01-30T03:27:06;7.37;;;4.20;;
8086;SDS011;4086;54.412;9.980;2024-01-30T03:29:34;4.80;;;3.33;;
8086;SDS011;4086;54.412;9.980;2024-01-30T03:32:00;3.53;;;3.10;;
8086;SDS011;4086;54.412;9.980;2024-01-30T03:34:28;4.90;;;3.30;;
8086;SDS011;4086;54.412;9.980;2024-01-30T03:36:55;4.43;;;3.43;;
8086;SDS011;4086;54.412;9.980;2024-01-30T03:39:21;5.00;;;2.80;;
8086;SDS011;4086;54.412;9.980;2024-01-30T03:41:48;4.43;;;3.30;;
8086;SDS011;4086;54.412;9.980;2024-01-30T03:44:15;6.07;;;4.03;;
8086;SDS011;4086;54.412;9.980;2024-01-30T03:46:42;5.40;;;3.63;;
8086;SDS011;4086;54.412;9.980;2024-01-30T03:49:09;4.20;;;2.80;;
8086;SDS011;4086;54.412;9.980;2024-01-30T03:51:35;4.17;;;3.40;;
8086;SDS011;4086;54.412;9.980;2024-01-30T03:54:02;4.17;;;3.50;;
8086;SDS011;4086;54.412;9.980;2024-01-30T03:56:28;6.30;;;3.60;;
8086;SDS011;4086;54.412;9.980;2024-01-30T03:58:54;5.70;;;4.53;;
8086;SDS011;4086;54.412;9.980;2024-01-30T04:01:22;5.70;;;3.90;;
8086;SDS011;4086;54.412;9.980;2024-01-30T04:03:49;3.97;;;3.20;;
8086;SDS011;4086;54.412;9.980;2024-01-30T04:06:16;5.33;;;3.57;;
8086;SDS011;4086;54.412;9.980;2024-01-30T04:08:42;5.90;;;4.43;;
8086;SDS011;4086;54.412;9.980;2024-01-30T04:11:08;5.27;;;3.13;;
8086;SDS011;4086;54.412;9.980;2024-01-30T04:13:35;3.60;;;3.03;;
8086;SDS011;4086;54.412;9.980;2024-01-30T04:16:02;4.83;;;3.03;;
8086;SDS011;4086;54.412;9.980;2024-01-30T04:18:28;4.87;;;3.43;;
8086;SDS011;4086;54.412;9.980;2024-01-30T04:20:56;4.97;;;3.23;;
8086;SDS011;4086;54.412;9.980;2024-01-30T04:23:23;7.50;;;4.00;;
8086;SDS011;4086;54.412;9.980;2024-01-30T04:25:49;4.47;;;3.97;;
8086;SDS011;4086;54.412;9.980;2024-01-30T04:28:16;5.13;;;3.67;;
8086;SDS011;4086;54.412;9.980;2024-01-30T04:30:42;5.50;;;3.47;;
8086;SDS011;4086;54.412;9.980;2024-01-30T04:33:10;5.50;;;3.80;;
8086;SDS011;4086;54.412;9.980;2024-01-30T04:35:36;4.17;;;3.33;;
8086;SDS011;4086;54.412;9.980;2024-01-30T04:38:04;4.20;;;3.77;;
8086;SDS011;4086;54.412;9.980;2024-01-30T04:40:30;6.60;;;3.13;;
8086;SDS011;4086;54.412;9.980;2024-01-30T04:42:57;3.50;;;3.07;;
8086;SDS011;4086;54.412;9.980;2024-01-30T04:45:23;4.50;;;3.17;;
8086;SDS011;4086;54.412;9.980;2024-01-30T04:47:49;6.00;;;3.97;;
8086;SDS011;4086;54.412;9.980;2024-01-30T04:50:16;2.73;;;2.53;;
8086;SDS011;4086;54.412;9.980;2024-01-30T04:52:43;5.70;;;4.40;;
8086;SDS011;4086;54.412;9.980;2024-01-30T04:55:11;4.40;;;3.90;;
8086;SDS011;4086;54.412;9.980;2024-01-30T04:57:37;4.23;;;2.73;;
8086;SDS011;4086;54.412;9.980;2024-01-30T05:00:04;4.23;;;3.73;;
8086;SDS011;4086;54.412;9.980;2024-01-30T05:02:31;2.93;;;2.73;;
8086;SDS011;4086;54.412;9.980;2024-01-30T05:04:58;6.07;;;3.57;;
8086;SDS011;4086;54.412;9.980;2024-01-30T05:07:24;2.83;;;2.50;;
8086;SDS011;4086;54.412;9.980;2024-01-30T05:09:51;5.20;;;3.23;;
8086;SDS011;4086;54.412;9.980;2024-01-30T05:12:20;6.43;;;3.20;;
8086;SDS011;4086;54.412;9.980;2024-01-30T05:14:46;4.27;;;2.87;;
8086;SDS011;4086;54.412;9.980;2024-01-30T05:17:13;5.70;;;3.43;;
8086;SDS011;4086;54.412;9.980;2024-01-30T05:19:39;4.13;;;3.33;;
8086;SDS011;4086;54.412;9.980;2024-01-30T05:22:05;2.97;;;2.63;;
8086;SDS011;4086;54.412;9.980;2024-01-30T05:24:32;3.77;;;3.17;;
8086;SDS011;4086;54.412;9.980;2024-01-30T05:26:58;4.00;;;3.00;;
8086;SDS011;4086;54.412;9.980;2024-01-30T05:29:26;5.03;;;3.57;;
8086;SDS011;4086;54.412;9.980;2024-01-30T05:31:53;4.37;;;2.80;;
8086;SDS011;4086;54.412;9.980;2024-01-30T05:34:19;4.53;;;2.50;;
8086;SDS011;4086;54.412;9.980;2024-01-30T05:36:45;3.17;;;2.67;;
8086;SDS011;4086;54.412;9.980;2024-01-30T05:39:12;5.13;;;2.80;;
8086;SDS011;4086;54.412;9.980;2024-01-30T05:41:39;2.67;;;2.47;;
8086;SDS011;4086;54.412;9.980;2024-01-30T05:44:06;4.23;;;3.57;;
8086;SDS011;4086;54.412;9.980;2024-01-30T05:46:35;3.70;;;3.07;;
8086;SDS011;4086;54.412;9.980;2024-01-30T05:49:01;5.17;;;2.77;;
8086;SDS011;4086;54.412;9.980;2024-01-30T05:51:27;2.60;;;2.40;;
8086;SDS011;4086;54.412;9.980;2024-01-30T05:53:54;4.20;;;2.60;;
8086;SDS011;4086;54.412;9.980;2024-01-30T05:56:20;5.90;;;3.30;;
8086;SDS011;4086;54.412;9.980;2024-01-30T05:58:47;2.47;;;2.27;;
8086;SDS011;4086;54.412;9.980;2024-01-30T06:01:15;8.17;;;3.30;;
8086;SDS011;4086;54.412;9.980;2024-01-30T06:03:42;3.90;;;2.20;;
8086;SDS011;4086;54.412;9.980;2024-01-30T06:06:09;3.67;;;2.83;;
8086;SDS011;4086;54.412;9.980;2024-01-30T06:08:35;5.07;;;2.90;;
8086;SDS011;4086;54.412;9.980;2024-01-30T06:11:02;3.03;;;2.63;;
8086;SDS011;4086;54.412;9.980;2024-01-30T06:13:28;4.30;;;3.83;;
8086;SDS011;4086;54.412;9.980;2024-01-30T06:15:56;4.00;;;2.93;;
8086;SDS011;4086;54.412;9.980;2024-01-30T06:18:23;4.57;;;2.77;;
8086;SDS011;4086;54.412;9.980;2024-01-30T06:20:51;3.07;;;2.87;;
8086;SDS011;4086;54.412;9.980;2024-01-30T06:23:17;5.70;;;3.93;;
8086;SDS011;4086;54.412;9.980;2024-01-30T06:25:44;4.00;;;2.83;;
8086;SDS011;4086;54.412;9.980;2024-01-30T06:28:10;3.57;;;2.47;;
8086;SDS011;4086;54.412;9.980;2024-01-30T06:30:37;3.63;;;2.73;;
8086;SDS011;4086;54.412;9.980;2024-01-30T06:33:03;2.93;;;2.63;;
8086;SDS011;4086;54.412;9.980;2024-01-30T06:35:30;3.60;;;3.00;;
8086;SDS011;4086;54.412;9.980;2024-01-30T06:37:57;2.43;;;1.97;;
8086;SDS011;4086;54.412;9.980;2024-01-30T06:40:24;2.90;;;2.60;;
8086;SDS011;4086;54.412;9.980;2024-01-30T06:42:50;4.00;;;2.67;;
8086;SDS011;4086;54.412;9.980;2024-01-30T06:45:16;3.10;;;2.07;;
8086;SDS011;4086;54.412;9.980;2024-01-30T06:47:43;2.97;;;2.10;;
8086;SDS011;4086;54.412;9.980;2024-01-30T06:50:09;3.53;;;2.40;;
8086;SDS011;4086;54.412;9.980;2024-01-30T06:52:36;2.83;;;2.63;;
8086;SDS011;4086;54.412;9.980;2024-01-30T06:55:03;3.10;;;2.30;;
8086;SDS011;4086;54.412;9.980;2024-01-30T06:57:30;3.00;;;2.27;;
8086;SDS011;4086;54.412;9.980;2024-01-30T06:59:56;3.57;;;3.20;;
8086;SDS011;4086;54.412;9.980;2024-01-30T07:02:23;2.97;;;2.73;;
8086;SDS011;4086;54.412;9.980;2024-01-30T07:04:50;4.63;;;3.03;;
8086;SDS011;4086;54.412;9.980;2024-01-30T07:07:16;4.57;;;2.73;;
8086;SDS011;4086;54.412;9.980;2024-01-30T07:09:42;5.10;;;2.90;;
8086;SDS011;4086;54.412;9.980;2024-01-30T07:12:10;2.70;;;2.47;;
8086;SDS011;4086;54.412;9.980;2024-01-30T07:14:37;3.03;;;2.53;;
8086;SDS011;4086;54.412;9.980;2024-01-30T07:17:03;3.03;;;2.73;;
8086;SDS011;4086;54.412;9.980;2024-01-30T07:19:31;6.67;;;3.00;;
8086;SDS011;4086;54.412;9.980;2024-01-30T07:21:57;2.60;;;2.40;;
8086;SDS011;4086;54.412;9.980;2024-01-30T07:24:23;2.67;;;2.03;;
8086;SDS011;4086;54.412;9.980;2024-01-30T07:26:50;3.13;;;2.47;;
8086;SDS011;4086;54.412;9.980;2024-01-30T07:29:17;4.17;;;2.60;;
8086;SDS011;4086;54.412;9.980;2024-01-30T07:31:44;4.43;;;3.10;;
8086;SDS011;4086;54.412;9.980;2024-01-30T07:34:11;3.57;;;2.57;;
8086;SDS011;4086;54.412;9.980;2024-01-30T07:36:38;6.37;;;3.40;;
8086;SDS011;4086;54.412;9.980;2024-01-30T07:39:04;3.00;;;2.70;;
8086;SDS011;4086;54.412;9.980;2024-01-30T07:41:30;3.30;;;2.63;;
8086;SDS011;4086;54.412;9.980;2024-01-30T07:43:57;5.43;;;3.27;;
8086;SDS011;4086;54.412;9.980;2024-01-30T07:46:25;2.83;;;2.50;;
8086;SDS011;4086;54.412;9.980;2024-01-30T07:48:51;2.23;;;2.13;;
8086;SDS011;4086;54.412;9.980;2024-01-30T07:51:18;4.33;;;2.97;;
8086;SDS011;4086;54.412;9.980;2024-01-30T07:53:44;2.30;;;2.10;;
8086;SDS011;4086;54.412;9.980;2024-01-30T07:56:11;3.07;;;2.47;;
8086;SDS011;4086;54.412;9.980;2024-01-30T07:58:37;3.50;;;2.20;;
8086;SDS011;4086;54.412;9.980;2024-01-30T08:01:04;3.87;;;3.03;;
8086;SDS011;4086;54.412;9.980;2024-01-30T08:03:31;4.57;;;2.73;;
8086;SDS011;4086;54.412;9.980;2024-01-30T08:05:59;4.47;;;2.73;;
8086;SDS011;4086;54.412;9.980;2024-01-30T08:08:25;3.73;;;2.63;;
8086;SDS011;4086;54.412;9.980;2024-01-30T08:10:52;3.63;;;3.17;;
8086;SDS011;4086;54.412;9.980;2024-01-30T08:13:18;2.93;;;2.73;;
8086;SDS011;4086;54.412;9.980;2024-01-30T08:15:44;5.03;;;2.93;;
8086;SDS011;4086;54.412;9.980;2024-01-30T08:18:11;3.90;;;3.20;;
8086;SDS011;4086;54.412;9.980;2024-01-30T08:20:38;2.90;;;2.57;;
8086;SDS011;4086;54.412;9.980;2024-01-30T08:23:05;2.97;;;2.67;;
8086;SDS011;4086;54.412;9.980;2024-01-30T08:25:31;2.87;;;2.53;;
8086;SDS011;4086;54.412;9.980;2024-01-30T08:27:57;3.10;;;2.80;;
8086;SDS011;4086;54.412;9.980;2024-01-30T08:30:25;4.40;;;3.00;;
8086;SDS011;4086;54.412;9.980;2024-01-30T08:32:51;4.50;;;2.73;;
8086;SDS011;4086;54.412;9.980;2024-01-30T08:35:17;3.20;;;2.70;;
8086;SDS011;4086;54.412;9.980;2024-01-30T08:37:45;3.43;;;2.80;;
8086;SDS011;4086;54.412;9.980;2024-01-30T08:40:12;3.77;;;2.67;;
8086;SDS011;4086;54.412;9.980;2024-01-30T08:42:38;2.87;;;2.60;;
8086;SDS011;4086;54.412;9.980;2024-01-30T08:45:05;5.93;;;3.40;;
8086;SDS011;4086;54.412;9.980;2024-01-30T08:47:31;4.30;;;2.80;;
8086;SDS011;4086;54.412;9.980;2024-01-30T08:49:58;7.13;;;3.60;;
8086;SDS011;4086;54.412;9.980;2024-01-30T08:52:24;3.33;;;2.80;;
8086;SDS011;4086;54.412;9.980;2024-01-30T08:54:52;4.50;;;3.03;;
8086;SDS011;4086;54.412;9.980;2024-01-30T08:57:19;7.87;;;3.90;;
8086;SDS011;4086;54.412;9.980;2024-01-30T08:59:45;3.67;;;3.27;;
8086;SDS011;4086;54.412;9.980;2024-01-30T09:02:12;4.30;;;3.40;;
8086;SDS011;4086;54.412;9.980;2024-01-30T09:04:41;3.17;;;2.83;;
8086;SDS011;4086;54.412;9.980;2024-01-30T09:07:08;4.87;;;3.87;;
8086;SDS011;4086;54.412;9.980;2024-01-30T09:09:35;4.27;;;3.50;;
8086;SDS011;4086;54.412;9.980;2024-01-30T09:12:03;4.30;;;3.30;;
8086;SDS011;4086;54.412;9.980;2024-01-30T09:14:32;4.87;;;3.20;;
8086;SDS011;4086;54.412;9.980;2024-01-30T09:16:59;5.20;;;3.43;;
8086;SDS011;4086;54.412;9.980;2024-01-30T09:19:25;7.00;;;3.53;;
8086;SDS011;4086;54.412;9.980;2024-01-30T09:21:52;3.43;;;2.93;;
8086;SDS011;4086;54.412;9.980;2024-01-30T09:24:18;6.13;;;3.47;;
8086;SDS011;4086;54.412;9.980;2024-01-30T09:26:45;4.20;;;3.80;;
8086;SDS011;4086;54.412;9.980;2024-01-30T09:29:12;5.97;;;3.57;;
8086;SDS011;4086;54.412;9.980;2024-01-30T09:31:39;4.73;;;3.03;;
8086;SDS011;4086;54.412;9.980;2024-01-30T09:34:05;5.80;;;3.53;;
8086;SDS011;4086;54.412;9.980;2024-01-30T09:36:32;6.83;;;3.07;;
8086;SDS011;4086;54.412;9.980;2024-01-30T09:38:58;4.47;;;2.77;;
8086;SDS011;4086;54.412;9.980;2024-01-30T09:41:25;3.63;;;2.93;;
8086;SDS011;4086;54.412;9.980;2024-01-30T09:43:53;8.23;;;4.07;;
8086;SDS011;4086;54.412;9.980;2024-01-30T09:46:22;4.47;;;3.40;;
8086;SDS011;4086;54.412;9.980;2024-01-30T09:48:52;5.43;;;3.30;;
8086;SDS011;4086;54.412;9.980;2024-01-30T09:51:20;4.33;;;3.40;;
8086;SDS011;4086;54.412;9.980;2024-01-30T09:53:47;5.33;;;3.83;;
8086;SDS011;4086;54.412;9.980;2024-01-30T09:56:14;3.67;;;3.00;;
8086;SDS011;4086;54.412;9.980;2024-01-30T09:58:40;4.50;;;3.70;;
8086;SDS011;4086;54.412;9.980;2024-01-30T10:01:07;6.60;;;3.33;;
8086;SDS011;4086;54.412;9.980;2024-01-30T10:03:34;5.07;;;3.73;;
8086;SDS011;4086;54.412;9.980;2024-01-30T10:06:01;6.67;;;3.70;;
8086;SDS011;4086;54.412;9.980;2024-01-30T10:08:28;5.50;;;3.73;;
8086;SDS011;4086;54.412;9.980;2024-01-30T10:10:54;5.17;;;4.10;;
8086;SDS011;4086;54.412;9.980;2024-01-30T10:13:21;4.63;;;3.53;;
8086;SDS011;4086;54.412;9.980;2024-01-30T10:15:47;5.07;;;3.53;;
8086;SDS011;4086;54.412;9.980;2024-01-30T10:18:14;5.10;;;3.20;;
8086;SDS011;4086;54.412;9.980;2024-01-30T10:20:42;5.37;;;3.40;;
8086;SDS011;4086;54.412;9.980;2024-01-30T10:23:08;4.83;;;3.50;;
8086;SDS011;4086;54.412;9.980;2024-01-30T10:25:35;7.13;;;3.93;;
8086;SDS011;4086;54.412;9.980;2024-01-30T10:28:01;5.23;;;3.67;;
8086;SDS011;4086;54.412;9.980;2024-01-30T10:30:28;5.23;;;3.43;;
8086;SDS011;4086;54.412;9.980;2024-01-30T10:32:54;5.53;;;3.60;;
8086;SDS011;4086;54.412;9.980;2024-01-30T10:35:20;4.77;;;3.63;;
8086;SDS011;4086;54.412;9.980;2024-01-30T10:37:48;4.27;;;3.60;;
8086;SDS011;4086;54.412;9.980;2024-01-30T10:40:15;4.57;;;3.50;;
8086;SDS011;4086;54.412;9.980;2024-01-30T10:42:42;6.77;;;3.80;;
8086;SDS011;4086;54.412;9.980;2024-01-30T10:45:09;4.03;;;3.37;;
8086;SDS011;4086;54.412;9.980;2024-01-30T10:47:37;4.63;;;3.20;;
8086;SDS011;4086;54.412;9.980;2024-01-30T10:50:07;4.27;;;3.40;;
8086;SDS011;4086;54.412;9.980;2024-01-30T10:52:35;4.40;;;3.07;;
8086;SDS011;4086;54.412;9.980;2024-01-30T10:55:04;6.13;;;3.97;;
8086;SDS011;4086;54.412;9.980;2024-01-30T10:57:31;6.50;;;3.77;;
8086;SDS011;4086;54.412;9.980;2024-01-30T11:00:00;5.10;;;3.90;;
8086;SDS011;4086;54.412;9.980;2024-01-30T11:02:30;5.33;;;3.37;;
8086;SDS011;4086;54.412;9.980;2024-01-30T11:04:57;5.37;;;3.83;;
8086;SDS011;4086;54.412;9.980;2024-01-30T11:07:25;4.87;;;3.60;;
8086;SDS011;4086;54.412;9.980;2024-01-30T11:09:52;4.40;;;3.00;;
8086;SDS011;4086;54.412;9.980;2024-01-30T11:12:24;3.60;;;3.30;;
8086;SDS011;4086;54.412;9.980;2024-01-30T11:15:01;7.33;;;3.53;;
8086;SDS011;4086;54.412;9.980;2024-01-30T11:17:39;5.73;;;4.27;;
8086;SDS011;4086;54.412;9.980;2024-01-30T11:20:09;3.97;;;3.47;;
8086;SDS011;4086;54.412;9.980;2024-01-30T11:22:36;5.97;;;3.47;;
8086;SDS011;4086;54.412;9.980;2024-01-30T11:25:03;4.43;;;3.07;;
8086;SDS011;4086;54.412;9.980;2024-01-30T11:27:31;4.67;;;3.47;;
8086;SDS011;4086;54.412;9.980;2024-01-30T11:30:00;5.23;;;3.57;;
8086;SDS011;4086;54.412;9.980;2024-01-30T11:32:26;4.50;;;3.47;;
8086;SDS011;4086;54.412;9.980;2024-01-30T11:34:53;5.83;;;3.53;;
8086;SDS011;4086;54.412;9.980;2024-01-30T11:37:19;4.70;;;3.70;;
8086;SDS011;4086;54.412;9.980;2024-01-30T11:39:47;5.87;;;3.57;;
8086;SDS011;4086;54.412;9.980;2024-01-30T11:42:14;5.37;;;3.70;;
8086;SDS011;4086;54.412;9.980;2024-01-30T11:44:45;3.77;;;3.37;;
8086;SDS011;4086;54.412;9.980;2024-01-30T11:47:13;4.13;;;3.13;;
8086;SDS011;4086;54.412;9.980;2024-01-30T11:49:40;5.27;;;3.67;;
8086;SDS011;4086;54.412;9.980;2024-01-30T11:52:07;5.27;;;3.50;;
8086;SDS011;4086;54.412;9.980;2024-01-30T11:54:34;5.50;;;3.80;;
8086;SDS011;4086;54.412;9.980;2024-01-30T11:57:00;11.83;;;4.40;;
8086;SDS011;4086;54.412;9.980;2024-01-30T11:59:26;6.33;;;4.07;;
8086;SDS011;4086;54.412;9.980;2024-01-30T12:01:54;4.20;;;3.77;;
8086;SDS011;4086;54.412;9.980;2024-01-30T12:04:21;3.83;;;3.43;;
8086;SDS011;4086;54.412;9.980;2024-01-30T12:06:50;6.73;;;3.80;;
8086;SDS011;4086;54.412;9.980;2024-01-30T12:09:17;6.47;;;3.83;;
8086;SDS011;4086;54.412;9.980;2024-01-30T12:11:43;5.57;;;3.50;;
8086;SDS011;4086;54.412;9.980;2024-01-30T12:14:10;4.40;;;3.70;;
8086;SDS011;4086;54.412;9.980;2024-01-30T12:16:37;4.43;;;3.07;;
8086;SDS011;4086;54.412;9.980;2024-01-30T12:19:05;5.37;;;3.50;;
8086;SDS011;4086;54.412;9.980;2024-01-30T12:21:31;5.87;;;3.33;;
8086;SDS011;4086;54.412;9.980;2024-01-30T12:23:57;4.83;;;3.97;;
8086;SDS011;4086;54.412;9.980;2024-01-30T12:26:25;4.03;;;3.33;;
8086;SDS011;4086;54.412;9.980;2024-01-30T12:28:54;4.00;;;3.60;;
8086;SDS011;4086;54.412;9.980;2024-01-30T12:31:25;4.40;;;3.40;;
8086;SDS011;4086;54.412;9.980;2024-01-30T12:33:52;6.90;;;3.87;;
8086;SDS011;4086;54.412;9.980;2024-01-30T12:36:19;5.83;;;3.73;;
8086;SDS011;4086;54.412;9.980;2024-01-30T12:38:47;5.83;;;4.03;;
8086;SDS011;4086;54.412;9.980;2024-01-30T12:41:13;5.23;;;3.93;;
8086;SDS011;4086;54.412;9.980;2024-01-30T12:43:39;4.23;;;3.83;;
8086;SDS011;4086;54.412;9.980;2024-01-30T12:46:06;6.10;;;4.27;;
8086;SDS011;4086;54.412;9.980;2024-01-30T12:48:32;3.90;;;3.37;;
8086;SDS011;4086;54.412;9.980;2024-01-30T12:50:59;4.30;;;3.63;;
8086;SDS011;4086;54.412;9.980;2024-01-30T12:53:26;5.03;;;3.80;;
8086;SDS011;4086;54.412;9.980;2024-01-30T12:55:53;6.17;;;4.10;;
8086;SDS011;4086;54.412;9.980;2024-01-30T12:58:20;7.27;;;3.87;;
8086;SDS011;4086;54.412;9.980;2024-01-30T13:00:46;4.83;;;4.00;;
8086;SDS011;4086;54.412;9.980;2024-01-30T13:03:13;6.20;;;3.87;;
8086;SDS011;4086;54.412;9.980;2024-01-30T13:05:39;5.27;;;4.00;;
8086;SDS011;4086;54.412;9.980;2024-01-30T13:08:06;7.00;;;4.60;;
8086;SDS011;4086;54.412;9.980;2024-01-30T13:10:34;5.13;;;4.00;;
8086;SDS011;4086;54.412;9.980;2024-01-30T13:13:00;6.03;;;3.70;;
8086;SDS011;4086;54.412;9.980;2024-01-30T13:15:27;5.00;;;3.53;;
8086;SDS011;4086;54.412;9.980;2024-01-30T13:17:54;6.30;;;3.73;;
8086;SDS011;4086;54.412;9.980;2024-01-30T13:20:20;4.80;;;3.13;;
8086;SDS011;4086;54.412;9.980;2024-01-30T13:22:47;5.57;;;3.77;;
8086;SDS011;4086;54.412;9.980;2024-01-30T13:25:13;5.93;;;4.50;;
8086;SDS011;4086;54.412;9.980;2024-01-30T13:27:41;4.90;;;3.70;;
8086;SDS011;4086;54.412;9.980;2024-01-30T13:30:08;4.60;;;3.57;;
8086;SDS011;4086;54.412;9.980;2024-01-30T13:32:35;7.33;;;4.10;;
8086;SDS011;4086;54.412;9.980;2024-01-30T13:35:01;4.83;;;3.90;;
8086;SDS011;4086;54.412;9.980;2024-01-30T13:37:28;4.93;;;3.57;;
8086;SDS011;4086;54.412;9.980;2024-01-30T13:39:54;5.73;;;3.47;;
8086;SDS011;4086;54.412;9.980;2024-01-30T13:42:21;7.03;;;4.47;;
8086;SDS011;4086;54.412;9.980;2024-01-30T13:44:49;3.90;;;3.17;;
8086;SDS011;4086;54.412;9.980;2024-01-30T13:47:16;7.93;;;4.00;;
8086;SDS011;4086;54.412;9.980;2024-01-30T13:49:43;6.87;;;3.80;;
8086;SDS011;4086;54.412;9.980;2024-01-30T13:52:10;5.60;;;3.60;;
8086;SDS011;4086;54.412;9.980;2024-01-30T13:54:37;5.20;;;4.00;;
8086;SDS011;4086;54.412;9.980;2024-01-30T13:57:03;7.20;;;4.00;;
8086;SDS011;4086;54.412;9.980;2024-01-30T13:59:30;5.73;;;3.93;;
8086;SDS011;4086;54.412;9.980;2024-01-30T14:01:58;6.50;;;3.77;;
8086;SDS011;4086;54.412;9.980;2024-01-30T14:04:24;7.03;;;3.67;;
8086;SDS011;4086;54.412;9.980;2024-01-30T14:06:50;5.40;;;4.17;;
8086;SDS011;4086;54.412;9.980;2024-01-30T14:09:17;6.30;;;4.13;;
8086;SDS011;4086;54.412;9.980;2024-01-30T14:11:43;7.43;;;4.27;;
8086;SDS011;4086;54.412;9.980;2024-01-30T14:14:09;4.53;;;3.50;;
8086;SDS011;4086;54.412;9.980;2024-01-30T14:16:36;5.20;;;3.63;;
8086;SDS011;4086;54.412;9.980;2024-01-30T14:19:04;7.77;;;4.27;;
8086;SDS011;4086;54.412;9.980;2024-01-30T14:21:30;5.53;;;3.43;;
8086;SDS011;4086;54.412;9.980;2024-01-30T14:23:56;6.73;;;4.63;;
8086;SDS011;4086;54.412;9.980;2024-01-30T14:26:23;6.70;;;3.70;;
8086;SDS011;4086;54.412;9.980;2024-01-30T14:28:49;5.43;;;4.17;;
8086;SDS011;4086;54.412;9.980;2024-01-30T14:31:16;5.77;;;3.57;;
8086;SDS011;4086;54.412;9.980;2024-01-30T14:33:43;6.63;;;4.10;;
8086;SDS011;4086;54.412;9.980;2024-01-30T14:36:11;6.27;;;3.60;;
8086;SDS011;4086;54.412;9.980;2024-01-30T14:38:39;11.03;;;4.80;;
8086;SDS011;4086;54.412;9.980;2024-01-30T14:41:05;5.63;;;4.07;;
8086;SDS011;4086;54.412;9.980;2024-01-30T14:43:31;6.17;;;4.03;;
8086;SDS011;4086;54.412;9.980;2024-01-30T14:45:58;8.43;;;4.10;;
8086;SDS011;4086;54.412;9.980;2024-01-30T14:48:24;3.87;;;3.33;;
8086;SDS011;4086;54.412;9.980;2024-01-30T14:50:51;6.13;;;4.03;;
8086;SDS011;4086;54.412;9.980;2024-01-30T14:53:19;8.77;;;3.83;;
8086;SDS011;4086;54.412;9.980;2024-01-30T14:55:45;5.97;;;4.27;;
8086;SDS011;4086;54.412;9.980;2024-01-30T14:58:11;4.80;;;3.97;;
8086;SDS011;4086;54.412;9.980;2024-01-30T15:00:38;5.13;;;3.77;;
8086;SDS011;4086;54.412;9.980;2024-01-30T15:03:04;6.27;;;4.43;;
8086;SDS011;4086;54.412;9.980;2024-01-30T15:05:31;5.63;;;3.77;;
8086;SDS011;4086;54.412;9.980;2024-01-30T15:07:57;7.53;;;4.70;;
8086;SDS011;4086;54.412;9.980;2024-01-30T15:10:25;7.00;;;4.73;;
8086;SDS011;4086;54.412;9.980;2024-01-30T15:12:51;5.60;;;4.40;;